sensor_id;sensor_type;location;lat;lon;timestamp;P1;durP1;ratioP1;P2;durP2;ratioP2
8881;SDS011;4477;48.736;9.176;2023-09-08T00:00:08;12.30;;;11.00;;
8881;SDS011;4477;48.736;9.176;2023-09-08T00:02:35;12.50;;;11.27;;
8881;SDS011;4477;48.736;9.176;2023-09-08T00:05:02;11.37;;;10.27;;
8881;SDS011;4477;48.736;9.176;2023-09-08T00:07:29;12.13;;;10.83;;
8881;SDS011;4477;48.736;9.176;2023-09-08T00:09:56;12.50;;;11.40;;
8881;SDS011;4477;48.736;9.176;2023-09-08T00:12:25;13.30;;;11.90;;
8881;SDS011;4477;48.736;9.176;2023-09-08T00:14:52;14.33;;;12.70;;
8881;SDS011;4477;48.736;9.176;2023-09-08T00:17:19;13.17;;;11.87;;
8881;SDS011;4477;48.736;9.176;2023-09-08T00:19:46;12.80;;;11.63;;
8881;SDS011;4477;48.736;9.176;2023-09-08T00:22:13;14.40;;;13.00;;
8881;SDS011;4477;48.736;9.176;2023-09-08T00:24:40;13.07;;;11.83;;
8881;SDS011;4477;48.736;9.176;2023-09-08T00:27:08;12.40;;;11.20;;
8881;SDS011;4477;48.736;9.176;2023-09-08T00:29:36;12.63;;;11.43;;
8881;SDS011;4477;48.736;9.176;2023-09-08T00:32:04;13.07;;;11.80;;
8881;SDS011;4477;48.736;9.176;2023-09-08T00:34:31;12.50;;;11.40;;
8881;SDS011;4477;48.736;9.176;2023-09-08T00:36:58;14.17;;;12.80;;
8881;SDS011;4477;48.736;9.176;2023-09-08T00:39:32;13.00;;;11.60;;
8881;SDS011;4477;48.736;9.176;2023-09-08T00:41:59;14.17;;;12.43;;
8881;SDS011;4477;48.736;9.176;2023-09-08T00:44:26;13.63;;;12.30;;
8881;SDS011;4477;48.736;9.176;2023-09-08T00:46:54;14.60;;;13.10;;
8881;SDS011;4477;48.736;9.176;2023-09-08T00:49:21;14.53;;;13.03;;
8881;SDS011;4477;48.736;9.176;2023-09-08T00:51:49;14.87;;;13.37;;
8881;SDS011;4477;48.736;9.176;2023-09-08T00:54:16;14.73;;;13.37;;
8881;SDS011;4477;48.736;9.176;2023-09-08T00:56:43;14.87;;;13.43;;
8881;SDS011;4477;48.736;9.176;2023-09-08T00:59:11;14.10;;;12.80;;
8881;SDS011;4477;48.736;9.176;2023-09-08T01:01:38;14.00;;;12.60;;
8881;SDS011;4477;48.736;9.176;2023-09-08T01:04:06;14.53;;;13.13;;
8881;SDS011;4477;48.736;9.176;2023-09-08T01:06:34;13.30;;;12.00;;
8881;SDS011;4477;48.736;9.176;2023-09-08T01:09:02;14.90;;;13.50;;
8881;SDS011;4477;48.736;9.176;2023-09-08T01:11:30;15.07;;;13.53;;
8881;SDS011;4477;48.736;9.176;2023-09-08T01:13:57;13.93;;;12.73;;
8881;SDS011;4477;48.736;9.176;2023-09-08T01:16:24;14.20;;;12.80;;
8881;SDS011;4477;48.736;9.176;2023-09-08T01:18:51;13.60;;;12.20;;
8881;SDS011;4477;48.736;9.176;2023-09-08T01:21:38;14.70;;;13.13;;
8881;SDS011;4477;48.736;9.176;2023-09-08T01:24:20;14.17;;;12.67;;
8881;SDS011;4477;48.736;9.176;2023-09-08T01:26:49;13.67;;;12.37;;
8881;SDS011;4477;48.736;9.176;2023-09-08T01:29:16;14.97;;;13.57;;
8881;SDS011;4477;48.736;9.176;2023-09-08T01:31:44;13.87;;;12.47;;
8881;SDS011;4477;48.736;9.176;2023-09-08T01:34:11;13.83;;;12.40;;
8881;SDS011;4477;48.736;9.176;2023-09-08T01:36:40;14.07;;;12.67;;
8881;SDS011;4477;48.736;9.176;2023-09-08T01:39:06;14.57;;;13.13;;
8881;SDS011;4477;48.736;9.176;2023-09-08T01:41:33;13.90;;;12.60;;
8881;SDS011;4477;48.736;9.176;2023-09-08T01:44:01;15.20;;;13.53;;
8881;SDS011;4477;48.736;9.176;2023-09-08T01:46:33;15.13;;;13.23;;
8881;SDS011;4477;48.736;9.176;2023-09-08T01:48:59;14.67;;;13.13;;
8881;SDS011;4477;48.736;9.176;2023-09-08T01:51:26;14.17;;;12.67;;
8881;SDS011;4477;48.736;9.176;2023-09-08T01:53:53;15.10;;;13.60;;
8881;SDS011;4477;48.736;9.176;2023-09-08T01:56:20;15.73;;;14.23;;
8881;SDS011;4477;48.736;9.176;2023-09-08T01:58:48;16.23;;;14.63;;
8881;SDS011;4477;48.736;9.176;2023-09-08T02:01:16;15.80;;;14.40;;
8881;SDS011;4477;48.736;9.176;2023-09-08T02:03:43;17.73;;;15.90;;
8881;SDS011;4477;48.736;9.176;2023-09-08T02:06:09;17.40;;;15.70;;
8881;SDS011;4477;48.736;9.176;2023-09-08T02:08:36;17.43;;;15.63;;
8881;SDS011;4477;48.736;9.176;2023-09-08T02:11:03;17.50;;;15.80;;
8881;SDS011;4477;48.736;9.176;2023-09-08T02:13:30;16.27;;;14.57;;
8881;SDS011;4477;48.736;9.176;2023-09-08T02:15:56;16.07;;;14.57;;
8881;SDS011;4477;48.736;9.176;2023-09-08T02:18:25;16.47;;;14.93;;
8881;SDS011;4477;48.736;9.176;2023-09-08T02:20:51;16.80;;;15.10;;
8881;SDS011;4477;48.736;9.176;2023-09-08T02:23:18;16.43;;;14.67;;
8881;SDS011;4477;48.736;9.176;2023-09-08T02:25:45;15.30;;;13.90;;
8881;SDS011;4477;48.736;9.176;2023-09-08T02:28:12;16.10;;;14.47;;
8881;SDS011;4477;48.736;9.176;2023-09-08T02:30:38;14.50;;;13.00;;
8881;SDS011;4477;48.736;9.176;2023-09-08T02:33:05;14.23;;;13.03;;
8881;SDS011;4477;48.736;9.176;2023-09-08T02:35:36;14.90;;;13.50;;
8881;SDS011;4477;48.736;9.176;2023-09-08T02:38:04;15.37;;;13.83;;
8881;SDS011;4477;48.736;9.176;2023-09-08T02:40:30;15.30;;;13.70;;
8881;SDS011;4477;48.736;9.176;2023-09-08T02:42:59;15.33;;;13.60;;
8881;SDS011;4477;48.736;9.176;2023-09-08T02:45:26;16.23;;;14.47;;
8881;SDS011;4477;48.736;9.176;2023-09-08T02:47:53;15.67;;;14.17;;
8881;SDS011;4477;48.736;9.176;2023-09-08T02:50:20;15.83;;;14.33;;
8881;SDS011;4477;48.736;9.176;2023-09-08T02:52:48;16.67;;;14.93;;
8881;SDS011;4477;48.736;9.176;2023-09-08T02:55:15;17.30;;;15.47;;
8881;SDS011;4477;48.736;9.176;2023-09-08T02:57:42;16.70;;;15.00;;
8881;SDS011;4477;48.736;9.176;2023-09-08T03:00:09;18.37;;;14.73;;
8881;SDS011;4477;48.736;9.176;2023-09-08T03:02:36;17.77;;;15.97;;
8881;SDS011;4477;48.736;9.176;2023-09-08T03:05:03;17.13;;;15.17;;
8881;SDS011;4477;48.736;9.176;2023-09-08T03:07:31;15.80;;;14.17;;
8881;SDS011;4477;48.736;9.176;2023-09-08T03:10:00;16.33;;;14.73;;
8881;SDS011;4477;48.736;9.176;2023-09-08T03:12:26;14.90;;;13.50;;
8881;SDS011;4477;48.736;9.176;2023-09-08T03:14:54;15.23;;;13.73;;
8881;SDS011;4477;48.736;9.176;2023-09-08T03:17:21;16.37;;;13.60;;
8881;SDS011;4477;48.736;9.176;2023-09-08T03:19:50;14.60;;;13.10;;
8881;SDS011;4477;48.736;9.176;2023-09-08T03:22:17;14.70;;;13.20;;
8881;SDS011;4477;48.736;9.176;2023-09-08T03:24:43;14.60;;;13.20;;
8881;SDS011;4477;48.736;9.176;2023-09-08T03:27:12;15.07;;;13.57;;
8881;SDS011;4477;48.736;9.176;2023-09-08T03:29:38;14.63;;;13.23;;
8881;SDS011;4477;48.736;9.176;2023-09-08T03:32:05;15.67;;;14.07;;
8881;SDS011;4477;48.736;9.176;2023-09-08T03:34:32;15.43;;;13.90;;
8881;SDS011;4477;48.736;9.176;2023-09-08T03:36:59;14.00;;;12.60;;
8881;SDS011;4477;48.736;9.176;2023-09-08T03:39:26;15.53;;;14.03;;
8881;SDS011;4477;48.736;9.176;2023-09-08T03:41:52;14.83;;;12.93;;
8881;SDS011;4477;48.736;9.176;2023-09-08T03:44:20;14.13;;;12.70;;
8881;SDS011;4477;48.736;9.176;2023-09-08T03:46:47;14.00;;;12.63;;
8881;SDS011;4477;48.736;9.176;2023-09-08T03:49:14;15.40;;;13.77;;
8881;SDS011;4477;48.736;9.176;2023-09-08T03:51:41;14.03;;;12.60;;
8881;SDS011;4477;48.736;9.176;2023-09-08T03:54:08;14.47;;;13.13;;
8881;SDS011;4477;48.736;9.176;2023-09-08T03:56:35;14.37;;;12.97;;
8881;SDS011;4477;48.736;9.176;2023-09-08T03:59:01;15.33;;;13.77;;
8881;SDS011;4477;48.736;9.176;2023-09-08T04:01:32;16.23;;;14.27;;
8881;SDS011;4477;48.736;9.176;2023-09-08T04:03:59;15.47;;;13.97;;
8881;SDS011;4477;48.736;9.176;2023-09-08T04:06:25;15.73;;;14.13;;
8881;SDS011;4477;48.736;9.176;2023-09-08T04:08:53;16.07;;;14.57;;
8881;SDS011;4477;48.736;9.176;2023-09-08T04:11:20;15.07;;;13.50;;
8881;SDS011;4477;48.736;9.176;2023-09-08T04:13:47;14.97;;;13.57;;
8881;SDS011;4477;48.736;9.176;2023-09-08T04:16:13;16.03;;;13.80;;
8881;SDS011;4477;48.736;9.176;2023-09-08T04:18:42;15.23;;;13.73;;
8881;SDS011;4477;48.736;9.176;2023-09-08T04:21:09;14.70;;;13.27;;
8881;SDS011;4477;48.736;9.176;2023-09-08T04:23:36;14.63;;;13.30;;
8881;SDS011;4477;48.736;9.176;2023-09-08T04:26:03;16.30;;;14.47;;
8881;SDS011;4477;48.736;9.176;2023-09-08T04:28:30;17.00;;;14.93;;
8881;SDS011;4477;48.736;9.176;2023-09-08T04:30:57;14.83;;;13.37;;
8881;SDS011;4477;48.736;9.176;2023-09-08T04:33:24;15.43;;;13.93;;
8881;SDS011;4477;48.736;9.176;2023-09-08T04:35:52;16.27;;;14.67;;
8881;SDS011;4477;48.736;9.176;2023-09-08T04:38:19;15.50;;;14.00;;
8881;SDS011;4477;48.736;9.176;2023-09-08T04:40:46;15.67;;;14.07;;
8881;SDS011;4477;48.736;9.176;2023-09-08T04:43:12;16.00;;;14.40;;
8881;SDS011;4477;48.736;9.176;2023-09-08T04:45:39;15.27;;;13.87;;
8881;SDS011;4477;48.736;9.176;2023-09-08T04:48:06;14.30;;;12.90;;
8881;SDS011;4477;48.736;9.176;2023-09-08T04:50:33;15.13;;;13.63;;
8881;SDS011;4477;48.736;9.176;2023-09-08T04:53:01;15.87;;;14.23;;
8881;SDS011;4477;48.736;9.176;2023-09-08T04:55:28;15.97;;;14.47;;
8881;SDS011;4477;48.736;9.176;2023-09-08T04:57:55;17.90;;;16.07;;
8881;SDS011;4477;48.736;9.176;2023-09-08T05:00:22;18.50;;;15.93;;
8881;SDS011;4477;48.736;9.176;2023-09-08T05:02:49;17.03;;;15.30;;
8881;SDS011;4477;48.736;9.176;2023-09-08T05:05:16;17.07;;;15.30;;
8881;SDS011;4477;48.736;9.176;2023-09-08T05:07:43;16.47;;;14.87;;
8881;SDS011;4477;48.736;9.176;2023-09-08T05:10:11;15.93;;;14.33;;
8881;SDS011;4477;48.736;9.176;2023-09-08T05:12:38;17.13;;;15.30;;
8881;SDS011;4477;48.736;9.176;2023-09-08T05:15:05;18.33;;;16.53;;
8881;SDS011;4477;48.736;9.176;2023-09-08T05:17:39;18.63;;;16.53;;
8881;SDS011;4477;48.736;9.176;2023-09-08T05:20:06;20.50;;;18.30;;
8881;SDS011;4477;48.736;9.176;2023-09-08T05:22:34;20.60;;;17.70;;
8881;SDS011;4477;48.736;9.176;2023-09-08T05:25:01;20.47;;;17.33;;
8881;SDS011;4477;48.736;9.176;2023-09-08T05:27:29;18.63;;;16.60;;
8881;SDS011;4477;48.736;9.176;2023-09-08T05:29:57;19.50;;;17.60;;
8881;SDS011;4477;48.736;9.176;2023-09-08T05:32:26;19.93;;;17.83;;
8881;SDS011;4477;48.736;9.176;2023-09-08T05:34:53;16.80;;;15.10;;
8881;SDS011;4477;48.736;9.176;2023-09-08T05:37:20;19.43;;;17.53;;
8881;SDS011;4477;48.736;9.176;2023-09-08T05:39:47;19.53;;;17.63;;
8881;SDS011;4477;48.736;9.176;2023-09-08T05:42:14;22.23;;;17.83;;
8881;SDS011;4477;48.736;9.176;2023-09-08T05:44:42;21.63;;;18.73;;
8881;SDS011;4477;48.736;9.176;2023-09-08T05:47:10;21.03;;;18.83;;
8881;SDS011;4477;48.736;9.176;2023-09-08T05:49:37;20.23;;;18.03;;
8881;SDS011;4477;48.736;9.176;2023-09-08T05:52:04;20.43;;;18.03;;
8881;SDS011;4477;48.736;9.176;2023-09-08T05:54:31;20.33;;;18.23;;
8881;SDS011;4477;48.736;9.176;2023-09-08T05:56:57;21.97;;;19.67;;
8881;SDS011;4477;48.736;9.176;2023-09-08T05:59:24;20.90;;;18.80;;
8881;SDS011;4477;48.736;9.176;2023-09-08T06:01:52;21.27;;;18.63;;
8881;SDS011;4477;48.736;9.176;2023-09-08T06:04:19;20.87;;;18.70;;
8881;SDS011;4477;48.736;9.176;2023-09-08T06:06:46;21.13;;;18.87;;
8881;SDS011;4477;48.736;9.176;2023-09-08T06:09:13;20.37;;;18.27;;
8881;SDS011;4477;48.736;9.176;2023-09-08T06:11:41;21.47;;;19.17;;
8881;SDS011;4477;48.736;9.176;2023-09-08T06:14:08;19.70;;;17.70;;
8881;SDS011;4477;48.736;9.176;2023-09-08T06:16:35;20.60;;;18.60;;
8881;SDS011;4477;48.736;9.176;2023-09-08T06:19:03;19.20;;;17.30;;
8881;SDS011;4477;48.736;9.176;2023-09-08T06:21:30;18.80;;;16.93;;
8881;SDS011;4477;48.736;9.176;2023-09-08T06:23:57;18.37;;;16.03;;
8881;SDS011;4477;48.736;9.176;2023-09-08T06:26:24;17.53;;;15.70;;
8881;SDS011;4477;48.736;9.176;2023-09-08T06:28:51;17.20;;;15.47;;
8881;SDS011;4477;48.736;9.176;2023-09-08T06:31:18;15.17;;;13.33;;
8881;SDS011;4477;48.736;9.176;2023-09-08T06:33:45;14.67;;;13.03;;
8881;SDS011;4477;48.736;9.176;2023-09-08T06:36:13;14.23;;;12.40;;
8881;SDS011;4477;48.736;9.176;2023-09-08T06:38:41;13.87;;;12.57;;
8881;SDS011;4477;48.736;9.176;2023-09-08T06:41:09;13.33;;;11.93;;
8881;SDS011;4477;48.736;9.176;2023-09-08T06:43:36;13.30;;;11.67;;
8881;SDS011;4477;48.736;9.176;2023-09-08T06:46:04;13.33;;;12.07;;
8881;SDS011;4477;48.736;9.176;2023-09-08T06:48:31;13.47;;;11.50;;
8881;SDS011;4477;48.736;9.176;2023-09-08T06:50:58;12.00;;;10.80;;
8881;SDS011;4477;48.736;9.176;2023-09-08T06:53:26;11.97;;;10.73;;
8881;SDS011;4477;48.736;9.176;2023-09-08T06:55:54;12.23;;;11.13;;
8881;SDS011;4477;48.736;9.176;2023-09-08T06:58:21;11.60;;;10.40;;
8881;SDS011;4477;48.736;9.176;2023-09-08T07:00:49;11.10;;;10.00;;
8881;SDS011;4477;48.736;9.176;2023-09-08T07:03:19;10.57;;;9.47;;
8881;SDS011;4477;48.736;9.176;2023-09-08T07:05:47;10.50;;;9.40;;
8881;SDS011;4477;48.736;9.176;2023-09-08T07:08:14;11.43;;;10.13;;
8881;SDS011;4477;48.736;9.176;2023-09-08T07:10:44;10.27;;;9.17;;
8881;SDS011;4477;48.736;9.176;2023-09-08T07:13:11;15.03;;;10.27;;
8881;SDS011;4477;48.736;9.176;2023-09-08T07:15:38;12.13;;;9.17;;
8881;SDS011;4477;48.736;9.176;2023-09-08T07:18:07;11.33;;;9.73;;
8881;SDS011;4477;48.736;9.176;2023-09-08T07:20:34;10.30;;;9.33;;
8881;SDS011;4477;48.736;9.176;2023-09-08T07:23:01;11.67;;;9.93;;
8881;SDS011;4477;48.736;9.176;2023-09-08T07:25:29;9.73;;;8.77;;
8881;SDS011;4477;48.736;9.176;2023-09-08T07:27:57;9.85;;;8.85;;
8881;SDS011;4477;48.736;9.176;2023-09-08T07:30:24;11.32;;;10.13;;
8881;SDS011;4477;48.736;9.176;2023-09-08T07:32:51;12.60;;;9.02;;
8881;SDS011;4477;48.736;9.176;2023-09-08T07:35:18;9.38;;;8.10;;
8881;SDS011;4477;48.736;9.176;2023-09-08T07:37:46;10.65;;;8.63;;
8881;SDS011;4477;48.736;9.176;2023-09-08T07:40:13;12.57;;;7.95;;
8881;SDS011;4477;48.736;9.176;2023-09-08T07:42:40;15.77;;;8.30;;
8881;SDS011;4477;48.736;9.176;2023-09-08T07:45:09;10.73;;;7.70;;
8881;SDS011;4477;48.736;9.176;2023-09-08T07:47:36;12.38;;;8.15;;
8881;SDS011;4477;48.736;9.176;2023-09-08T07:50:16;9.45;;;7.78;;
8881;SDS011;4477;48.736;9.176;2023-09-08T07:52:44;9.98;;;7.30;;
8881;SDS011;4477;48.736;9.176;2023-09-08T07:55:12;9.27;;;7.15;;
8881;SDS011;4477;48.736;9.176;2023-09-08T07:57:39;8.43;;;7.57;;
8881;SDS011;4477;48.736;9.176;2023-09-08T08:00:06;11.95;;;7.57;;
8881;SDS011;4477;48.736;9.176;2023-09-08T08:02:37;10.02;;;7.70;;
8881;SDS011;4477;48.736;9.176;2023-09-08T08:05:04;11.00;;;7.53;;
8881;SDS011;4477;48.736;9.176;2023-09-08T08:07:32;8.40;;;7.10;;
8881;SDS011;4477;48.736;9.176;2023-09-08T08:09:59;7.88;;;7.13;;
8881;SDS011;4477;48.736;9.176;2023-09-08T08:12:26;12.07;;;7.20;;
8881;SDS011;4477;48.736;9.176;2023-09-08T08:14:53;9.50;;;7.57;;
8881;SDS011;4477;48.736;9.176;2023-09-08T08:17:20;7.90;;;7.15;;
8881;SDS011;4477;48.736;9.176;2023-09-08T08:19:50;8.52;;;7.38;;
8881;SDS011;4477;48.736;9.176;2023-09-08T08:22:17;11.65;;;8.20;;
8881;SDS011;4477;48.736;9.176;2023-09-08T08:24:44;11.10;;;8.30;;
8881;SDS011;4477;48.736;9.176;2023-09-08T08:27:11;9.85;;;8.18;;
8881;SDS011;4477;48.736;9.176;2023-09-08T08:29:39;14.35;;;8.13;;
8881;SDS011;4477;48.736;9.176;2023-09-08T08:32:06;8.57;;;7.65;;
8881;SDS011;4477;48.736;9.176;2023-09-08T08:34:33;10.90;;;8.38;;
8881;SDS011;4477;48.736;9.176;2023-09-08T08:37:02;10.27;;;8.68;;
8881;SDS011;4477;48.736;9.176;2023-09-08T08:39:29;9.75;;;7.78;;
8881;SDS011;4477;48.736;9.176;2023-09-08T08:41:56;11.65;;;7.97;;
8881;SDS011;4477;48.736;9.176;2023-09-08T08:44:23;8.77;;;7.72;;
8881;SDS011;4477;48.736;9.176;2023-09-08T08:46:50;8.27;;;6.93;;
8881;SDS011;4477;48.736;9.176;2023-09-08T08:49:18;10.68;;;6.88;;
8881;SDS011;4477;48.736;9.176;2023-09-08T08:51:45;13.43;;;7.80;;
8881;SDS011;4477;48.736;9.176;2023-09-08T08:54:14;11.45;;;7.50;;
8881;SDS011;4477;48.736;9.176;2023-09-08T08:56:42;9.07;;;7.53;;
8881;SDS011;4477;48.736;9.176;2023-09-08T08:59:09;10.65;;;7.70;;
8881;SDS011;4477;48.736;9.176;2023-09-08T09:01:36;8.77;;;7.10;;
8881;SDS011;4477;48.736;9.176;2023-09-08T09:04:05;8.18;;;7.32;;
8881;SDS011;4477;48.736;9.176;2023-09-08T09:06:32;8.55;;;7.18;;
8881;SDS011;4477;48.736;9.176;2023-09-08T09:08:59;11.32;;;7.45;;
8881;SDS011;4477;48.736;9.176;2023-09-08T09:11:28;10.30;;;7.43;;
8881;SDS011;4477;48.736;9.176;2023-09-08T09:13:56;9.10;;;6.90;;
8881;SDS011;4477;48.736;9.176;2023-09-08T09:16:23;7.70;;;6.55;;
8881;SDS011;4477;48.736;9.176;2023-09-08T09:18:54;8.20;;;7.32;;
8881;SDS011;4477;48.736;9.176;2023-09-08T09:21:21;8.77;;;7.20;;
8881;SDS011;4477;48.736;9.176;2023-09-08T09:23:49;7.40;;;6.70;;
8881;SDS011;4477;48.736;9.176;2023-09-08T09:26:22;7.65;;;7.00;;
8881;SDS011;4477;48.736;9.176;2023-09-08T09:28:51;8.07;;;7.32;;
8881;SDS011;4477;48.736;9.176;2023-09-08T09:31:22;8.02;;;7.22;;
8881;SDS011;4477;48.736;9.176;2023-09-08T09:34:01;9.77;;;6.68;;
8881;SDS011;4477;48.736;9.176;2023-09-08T09:36:30;8.15;;;7.35;;
8881;SDS011;4477;48.736;9.176;2023-09-08T09:38:58;8.77;;;7.10;;
8881;SDS011;4477;48.736;9.176;2023-09-08T09:41:27;7.82;;;7.07;;
8881;SDS011;4477;48.736;9.176;2023-09-08T09:43:56;9.88;;;6.88;;
8881;SDS011;4477;48.736;9.176;2023-09-08T09:46:23;8.52;;;6.75;;
8881;SDS011;4477;48.736;9.176;2023-09-08T09:48:54;7.63;;;6.93;;
8881;SDS011;4477;48.736;9.176;2023-09-08T09:51:22;7.88;;;7.00;;
8881;SDS011;4477;48.736;9.176;2023-09-08T09:53:50;7.88;;;7.10;;
8881;SDS011;4477;48.736;9.176;2023-09-08T09:56:17;8.30;;;6.50;;
8881;SDS011;4477;48.736;9.176;2023-09-08T09:58:44;7.57;;;6.75;;
8881;SDS011;4477;48.736;9.176;2023-09-08T10:01:13;8.35;;;7.47;;
8881;SDS011;4477;48.736;9.176;2023-09-08T10:03:40;9.15;;;6.38;;
8881;SDS011;4477;48.736;9.176;2023-09-08T10:06:07;8.68;;;6.25;;
8881;SDS011;4477;48.736;9.176;2023-09-08T10:08:35;7.10;;;6.50;;
8881;SDS011;4477;48.736;9.176;2023-09-08T10:11:04;6.88;;;6.20;;
8881;SDS011;4477;48.736;9.176;2023-09-08T10:13:33;7.88;;;6.13;;
8881;SDS011;4477;48.736;9.176;2023-09-08T10:16:07;7.22;;;6.25;;
8881;SDS011;4477;48.736;9.176;2023-09-08T10:18:36;6.88;;;6.18;;
8881;SDS011;4477;48.736;9.176;2023-09-08T10:21:05;8.93;;;6.72;;
8881;SDS011;4477;48.736;9.176;2023-09-08T10:23:34;10.50;;;6.93;;
8881;SDS011;4477;48.736;9.176;2023-09-08T10:26:02;7.68;;;6.78;;
8881;SDS011;4477;48.736;9.176;2023-09-08T10:28:29;8.82;;;6.63;;
8881;SDS011;4477;48.736;9.176;2023-09-08T10:30:57;7.70;;;7.00;;
8881;SDS011;4477;48.736;9.176;2023-09-08T10:33:24;9.05;;;7.13;;
8881;SDS011;4477;48.736;9.176;2023-09-08T10:35:53;7.63;;;6.07;;
8881;SDS011;4477;48.736;9.176;2023-09-08T10:38:21;6.93;;;6.28;;
8881;SDS011;4477;48.736;9.176;2023-09-08T10:40:48;8.38;;;6.32;;
8881;SDS011;4477;48.736;9.176;2023-09-08T10:43:16;7.30;;;6.30;;
8881;SDS011;4477;48.736;9.176;2023-09-08T10:45:45;8.05;;;6.13;;
8881;SDS011;4477;48.736;9.176;2023-09-08T10:48:12;7.28;;;6.68;;
8881;SDS011;4477;48.736;9.176;2023-09-08T10:50:41;7.05;;;6.25;;
8881;SDS011;4477;48.736;9.176;2023-09-08T10:53:16;7.00;;;5.90;;
8881;SDS011;4477;48.736;9.176;2023-09-08T10:55:43;9.38;;;6.55;;
8881;SDS011;4477;48.736;9.176;2023-09-08T10:58:20;7.82;;;5.80;;
8881;SDS011;4477;48.736;9.176;2023-09-08T11:00:48;7.97;;;6.97;;
8881;SDS011;4477;48.736;9.176;2023-09-08T11:03:25;11.98;;;6.70;;
8881;SDS011;4477;48.736;9.176;2023-09-08T11:05:53;9.20;;;6.65;;
8881;SDS011;4477;48.736;9.176;2023-09-08T11:08:22;7.28;;;6.53;;
8881;SDS011;4477;48.736;9.176;2023-09-08T11:10:49;7.15;;;6.45;;
8881;SDS011;4477;48.736;9.176;2023-09-08T11:13:17;7.47;;;6.55;;
8881;SDS011;4477;48.736;9.176;2023-09-08T11:15:44;7.80;;;6.25;;
8881;SDS011;4477;48.736;9.176;2023-09-08T11:18:11;7.10;;;6.40;;
8881;SDS011;4477;48.736;9.176;2023-09-08T11:20:38;8.00;;;6.55;;
8881;SDS011;4477;48.736;9.176;2023-09-08T11:23:05;7.72;;;6.15;;
8881;SDS011;4477;48.736;9.176;2023-09-08T11:25:34;8.52;;;6.55;;
8881;SDS011;4477;48.736;9.176;2023-09-08T11:28:02;8.13;;;6.55;;
8881;SDS011;4477;48.736;9.176;2023-09-08T11:30:29;7.97;;;7.18;;
8881;SDS011;4477;48.736;9.176;2023-09-08T11:32:59;9.48;;;7.05;;
8881;SDS011;4477;48.736;9.176;2023-09-08T11:35:27;7.28;;;6.07;;
8881;SDS011;4477;48.736;9.176;2023-09-08T11:37:58;6.95;;;6.35;;
8881;SDS011;4477;48.736;9.176;2023-09-08T11:40:26;7.72;;;6.47;;
8881;SDS011;4477;48.736;9.176;2023-09-08T11:42:55;7.05;;;5.53;;
8881;SDS011;4477;48.736;9.176;2023-09-08T11:45:22;6.05;;;5.10;;
8881;SDS011;4477;48.736;9.176;2023-09-08T11:47:52;6.60;;;5.50;;
8881;SDS011;4477;48.736;9.176;2023-09-08T11:50:19;5.95;;;5.40;;
8881;SDS011;4477;48.736;9.176;2023-09-08T11:52:47;6.13;;;5.53;;
8881;SDS011;4477;48.736;9.176;2023-09-08T11:55:14;7.13;;;5.60;;
8881;SDS011;4477;48.736;9.176;2023-09-08T11:57:42;6.80;;;5.43;;
8881;SDS011;4477;48.736;9.176;2023-09-08T12:00:11;6.63;;;5.70;;
8881;SDS011;4477;48.736;9.176;2023-09-08T12:02:41;7.40;;;6.70;;
8881;SDS011;4477;48.736;9.176;2023-09-08T12:05:11;9.65;;;5.82;;
8881;SDS011;4477;48.736;9.176;2023-09-08T12:07:38;5.95;;;5.30;;
8881;SDS011;4477;48.736;9.176;2023-09-08T12:10:09;5.97;;;5.47;;
8881;SDS011;4477;48.736;9.176;2023-09-08T12:12:42;9.25;;;5.95;;
8881;SDS011;4477;48.736;9.176;2023-09-08T12:15:11;5.65;;;5.07;;
8881;SDS011;4477;48.736;9.176;2023-09-08T12:17:47;5.85;;;5.13;;
8881;SDS011;4477;48.736;9.176;2023-09-08T12:20:15;8.38;;;5.70;;
8881;SDS011;4477;48.736;9.176;2023-09-08T12:22:47;7.07;;;5.28;;
8881;SDS011;4477;48.736;9.176;2023-09-08T12:25:15;6.05;;;5.50;;
8881;SDS011;4477;48.736;9.176;2023-09-08T12:27:43;6.57;;;5.50;;
8881;SDS011;4477;48.736;9.176;2023-09-08T12:30:15;8.10;;;5.68;;
8881;SDS011;4477;48.736;9.176;2023-09-08T12:32:44;6.13;;;5.20;;
8881;SDS011;4477;48.736;9.176;2023-09-08T12:35:12;6.05;;;5.45;;
8881;SDS011;4477;48.736;9.176;2023-09-08T12:37:39;6.78;;;6.18;;
8881;SDS011;4477;48.736;9.176;2023-09-08T12:40:07;6.43;;;5.82;;
8881;SDS011;4477;48.736;9.176;2023-09-08T12:42:35;9.98;;;6.30;;
8881;SDS011;4477;48.736;9.176;2023-09-08T12:45:02;7.22;;;5.68;;
8881;SDS011;4477;48.736;9.176;2023-09-08T12:47:30;6.88;;;5.43;;
8881;SDS011;4477;48.736;9.176;2023-09-08T12:49:57;7.28;;;5.60;;
8881;SDS011;4477;48.736;9.176;2023-09-08T12:52:24;9.45;;;5.43;;
8881;SDS011;4477;48.736;9.176;2023-09-08T12:54:51;6.22;;;5.18;;
8881;SDS011;4477;48.736;9.176;2023-09-08T12:57:20;6.85;;;5.32;;
8881;SDS011;4477;48.736;9.176;2023-09-08T12:59:47;6.20;;;5.60;;
8881;SDS011;4477;48.736;9.176;2023-09-08T13:02:19;6.10;;;5.50;;
8881;SDS011;4477;48.736;9.176;2023-09-08T13:04:48;8.40;;;5.60;;
8881;SDS011;4477;48.736;9.176;2023-09-08T13:07:18;8.35;;;5.95;;
8881;SDS011;4477;48.736;9.176;2023-09-08T13:09:44;6.43;;;5.82;;
8881;SDS011;4477;48.736;9.176;2023-09-08T13:12:11;6.55;;;5.97;;
8881;SDS011;4477;48.736;9.176;2023-09-08T13:14:38;7.15;;;5.53;;
8881;SDS011;4477;48.736;9.176;2023-09-08T13:17:05;6.55;;;5.95;;
8881;SDS011;4477;48.736;9.176;2023-09-08T13:19:32;6.18;;;5.57;;
8881;SDS011;4477;48.736;9.176;2023-09-08T13:22:00;7.32;;;5.40;;
8881;SDS011;4477;48.736;9.176;2023-09-08T13:24:27;8.52;;;5.68;;
8881;SDS011;4477;48.736;9.176;2023-09-08T13:26:54;6.82;;;5.05;;
8881;SDS011;4477;48.736;9.176;2023-09-08T13:29:21;6.90;;;5.50;;
8881;SDS011;4477;48.736;9.176;2023-09-08T13:31:48;8.30;;;5.70;;
8881;SDS011;4477;48.736;9.176;2023-09-08T13:34:15;6.55;;;5.60;;
8881;SDS011;4477;48.736;9.176;2023-09-08T13:36:41;6.25;;;5.55;;
8881;SDS011;4477;48.736;9.176;2023-09-08T13:39:12;6.00;;;5.50;;
8881;SDS011;4477;48.736;9.176;2023-09-08T13:41:46;8.38;;;5.60;;
8881;SDS011;4477;48.736;9.176;2023-09-08T13:44:15;6.43;;;5.78;;
8881;SDS011;4477;48.736;9.176;2023-09-08T13:46:42;6.95;;;5.63;;
8881;SDS011;4477;48.736;9.176;2023-09-08T13:49:09;6.85;;;6.10;;
8881;SDS011;4477;48.736;9.176;2023-09-08T13:51:36;5.60;;;5.10;;
8881;SDS011;4477;48.736;9.176;2023-09-08T13:54:03;5.35;;;4.85;;
8881;SDS011;4477;48.736;9.176;2023-09-08T13:56:31;7.13;;;5.45;;
8881;SDS011;4477;48.736;9.176;2023-09-08T13:58:58;6.45;;;4.93;;
8881;SDS011;4477;48.736;9.176;2023-09-08T14:01:25;6.15;;;5.55;;
8881;SDS011;4477;48.736;9.176;2023-09-08T14:03:54;5.85;;;5.25;;
8881;SDS011;4477;48.736;9.176;2023-09-08T14:06:21;5.80;;;5.03;;
8881;SDS011;4477;48.736;9.176;2023-09-08T14:08:48;5.88;;;5.20;;
8881;SDS011;4477;48.736;9.176;2023-09-08T14:11:14;7.07;;;5.40;;
8881;SDS011;4477;48.736;9.176;2023-09-08T14:13:43;5.43;;;4.80;;
8881;SDS011;4477;48.736;9.176;2023-09-08T14:16:10;7.75;;;5.22;;
8881;SDS011;4477;48.736;9.176;2023-09-08T14:18:40;5.63;;;5.03;;
8881;SDS011;4477;48.736;9.176;2023-09-08T14:21:09;6.40;;;5.22;;
8881;SDS011;4477;48.736;9.176;2023-09-08T14:23:35;5.80;;;4.85;;
8881;SDS011;4477;48.736;9.176;2023-09-08T14:26:03;5.43;;;4.95;;
8881;SDS011;4477;48.736;9.176;2023-09-08T14:28:30;5.97;;;5.38;;
8881;SDS011;4477;48.736;9.176;2023-09-08T14:31:00;6.03;;;5.25;;
8881;SDS011;4477;48.736;9.176;2023-09-08T14:33:27;7.85;;;5.63;;
8881;SDS011;4477;48.736;9.176;2023-09-08T14:35:53;5.53;;;4.82;;
8881;SDS011;4477;48.736;9.176;2023-09-08T14:38:21;6.00;;;5.40;;
8881;SDS011;4477;48.736;9.176;2023-09-08T14:40:54;6.60;;;5.15;;
8881;SDS011;4477;48.736;9.176;2023-09-08T14:43:22;5.53;;;4.70;;
8881;SDS011;4477;48.736;9.176;2023-09-08T14:45:49;5.32;;;4.82;;
8881;SDS011;4477;48.736;9.176;2023-09-08T14:48:17;5.95;;;4.72;;
8881;SDS011;4477;48.736;9.176;2023-09-08T14:50:44;6.43;;;5.00;;
8881;SDS011;4477;48.736;9.176;2023-09-08T14:53:11;6.13;;;4.38;;
8881;SDS011;4477;48.736;9.176;2023-09-08T14:55:41;5.07;;;4.57;;
8881;SDS011;4477;48.736;9.176;2023-09-08T14:58:09;5.95;;;4.65;;
8881;SDS011;4477;48.736;9.176;2023-09-08T15:00:39;5.30;;;4.80;;
8881;SDS011;4477;48.736;9.176;2023-09-08T15:03:06;7.78;;;4.43;;